Main page

Tel Aviv / Ben Gurion, Israel

Ben Gurion Airport

latitude: 32-00N, longitude: 034-54E, elevation: 40 m

Current weather observation

The report was made 11 minutes ago, at 10:20 UTC
Wind 5 kt from the North/Northeast
Temperature 30°C
Humidity 43%
Pressure 1014 hPa
Visibility 10 km or more
Few clouds at a height of 3500 ft

METAR: LLBG 101020Z 02005KT 9999 FEW035 30/16 Q1014 NOSIG

Time: 13:31 (10:31 UTC)


The report was made 5 hours and 17 minutes ago, at 05:14 UTC
Forecast valid from 10 at 06 UTC to 11 at 06 UTC
Wind 4 kt from variable directions
Visibility 10 km or more
Scattered clouds at a height of 4000 ft
from 10 at 07 UTC to 10 at 09 UTC
Wind 12 kt from the North/Northwest
from 10 at 15 UTC to 10 at 18 UTC
Wind 5 kt from the North/Northeast
Visibility 10 km or more
no clouds below 1500 m and no cumulonimbus
from 10 at 20 UTC to 10 at 22 UTC
Wind 4 kt from the Southeast

TAF: LLBG 100514Z 1006/1106 VRB04KT 9999 SCT040 BECMG 1007/1009 33012KT BECMG 1015/1018 02005KT CAVOK BECMG 1020/1022 14004KT TX29/1011Z TN20/1103Z


Weather observations and forecasts of more than 4000 airports (METAR and TAF reports).

The available stations are represented by yellow and red dots on the map.

Hover mouse over dot to see the name of the station.

Then click to see weather observations and forecasts.

To change the map : click on the green buttons with a black cross to zoom in, on the green button with a dash to zoom out, or on the green arrows for adjacent maps.